createdAt,value
2022-09-10T00:01:30.412Z,12.13
2022-09-10T00:03:59.269Z,12.11
2022-09-10T00:06:28.056Z,12.08
2022-09-10T00:08:57.954Z,12.07
2022-09-10T00:11:29.633Z,12.07
2022-09-10T00:14:01.837Z,12.07
2022-09-10T00:16:31.134Z,12.07
2022-09-10T00:19:01.086Z,12.06
2022-09-10T00:21:29.915Z,12.05
2022-09-10T00:23:58.087Z,12.06
2022-09-10T00:26:28.484Z,12.07
2022-09-10T00:29:01.168Z,12.07
2022-09-10T00:31:30.575Z,12.06
2022-09-10T00:34:00.097Z,12.03
2022-09-10T00:36:35.792Z,12.01
2022-09-10T00:39:08.381Z,11.99
2022-09-10T00:41:39.244Z,11.99
2022-09-10T00:44:43.648Z,11.96
2022-09-10T00:47:23.379Z,11.93
2022-09-10T00:50:13.699Z,11.91
2022-09-10T00:52:42.654Z,11.90
2022-09-10T00:55:12.498Z,11.89
2022-09-10T00:57:42.698Z,11.89
2022-09-10T01:00:13.549Z,11.89
2022-09-10T01:02:43.264Z,11.90
2022-09-10T01:05:11.756Z,11.91
2022-09-10T01:07:40.994Z,11.91
2022-09-10T01:10:14.017Z,11.90
2022-09-10T01:12:47.671Z,11.89
2022-09-10T01:15:42.841Z,11.89
2022-09-10T01:18:30.117Z,11.89
2022-09-10T01:21:14.500Z,11.91
2022-09-10T01:24:14.164Z,11.91
2022-09-10T01:27:03.773Z,11.92
2022-09-10T01:29:41.071Z,11.92
2022-09-10T01:32:08.658Z,11.91
2022-09-10T01:34:56.294Z,11.92
2022-09-10T01:37:29.580Z,11.92
2022-09-10T01:39:59.494Z,11.92
2022-09-10T01:42:29.202Z,11.93
2022-09-10T01:44:58.201Z,11.94
2022-09-10T01:47:59.219Z,11.94
2022-09-10T01:50:57.217Z,11.93
2022-09-10T01:53:50.981Z,11.91
2022-09-10T01:56:41.176Z,11.92
2022-09-10T01:59:25.149Z,11.92
2022-09-10T02:02:08.962Z,11.92
2022-09-10T02:04:37.933Z,11.91
2022-09-10T02:07:07.451Z,11.90
2022-09-10T02:09:35.621Z,11.89
2022-09-10T02:12:03.627Z,11.89
2022-09-10T02:14:55.113Z,11.89
2022-09-10T02:17:33.493Z,11.90
2022-09-10T02:20:02.784Z,11.90
2022-09-10T02:22:33.554Z,11.91
2022-09-10T02:25:01.142Z,11.92
2022-09-10T02:27:30.025Z,11.91
2022-09-10T02:29:57.977Z,11.90
2022-09-10T02:32:26.415Z,11.88
2022-09-10T02:34:54.077Z,11.88
2022-09-10T02:37:21.699Z,11.88
2022-09-10T02:39:49.377Z,11.88
2022-09-10T02:42:17.954Z,11.89
2022-09-10T02:44:47.631Z,11.89
2022-09-10T02:47:15.290Z,11.89
2022-09-10T02:49:42.971Z,11.88
2022-09-10T02:52:12.360Z,11.88
2022-09-10T02:54:40.142Z,11.88
2022-09-10T02:57:08.189Z,11.88
2022-09-10T02:59:37.622Z,11.88
2022-09-10T03:02:05.301Z,11.88
2022-09-10T03:04:33.004Z,11.89
2022-09-10T03:07:00.695Z,11.89
2022-09-10T03:09:28.914Z,11.88
2022-09-10T03:11:56.706Z,11.88
2022-09-10T03:14:25.717Z,11.89
2022-09-10T03:16:53.368Z,11.89
2022-09-10T03:19:21.351Z,11.90
2022-09-10T03:21:48.936Z,11.90
2022-09-10T03:24:16.624Z,11.90
2022-09-10T03:26:46.220Z,11.89
2022-09-10T03:29:15.628Z,11.87
2022-09-10T03:31:46.243Z,11.87
2022-09-10T03:34:15.858Z,11.86
2022-09-10T03:36:47.284Z,11.85
2022-09-10T03:39:16.162Z,11.86
2022-09-10T03:41:45.363Z,11.85
2022-09-10T03:44:15.011Z,11.84
2022-09-10T03:46:42.920Z,11.84
2022-09-10T03:49:11.930Z,11.85
2022-09-10T03:51:39.580Z,11.86
2022-09-10T03:54:08.826Z,11.86
2022-09-10T03:56:36.472Z,11.87
2022-09-10T03:59:04.113Z,11.87
2022-09-10T04:01:32.020Z,11.87
2022-09-10T04:04:00.224Z,11.88
2022-09-10T04:06:32.220Z,11.88
2022-09-10T04:09:01.211Z,11.85
2022-09-10T04:11:29.691Z,11.83
2022-09-10T04:13:58.455Z,11.84
2022-09-10T04:16:27.747Z,11.84
2022-09-10T04:18:55.764Z,11.85
2022-09-10T04:21:24.546Z,11.84
2022-09-10T04:23:56.409Z,11.84
2022-09-10T04:26:24.080Z,11.83
2022-09-10T04:28:52.539Z,11.82
2022-09-10T04:31:20.798Z,11.83
2022-09-10T04:33:49.394Z,11.84
2022-09-10T04:36:20.542Z,11.83
2022-09-10T04:38:48.347Z,11.83
2022-09-10T04:41:19.447Z,11.83
2022-09-10T04:43:48.156Z,11.82
2022-09-10T04:46:17.545Z,11.83
2022-09-10T04:48:46.969Z,11.85
2022-09-10T04:51:18.588Z,11.85
2022-09-10T04:53:48.831Z,11.86
2022-09-10T04:56:17.013Z,11.87
2022-09-10T04:58:45.287Z,11.89
2022-09-10T05:01:14.734Z,11.88
2022-09-10T05:03:44.862Z,11.88
2022-09-10T05:06:13.526Z,11.88
2022-09-10T05:08:41.666Z,11.87
2022-09-10T05:11:11.493Z,11.85
2022-09-10T05:13:39.425Z,11.85
2022-09-10T05:16:07.891Z,11.85
2022-09-10T05:18:35.881Z,11.84
2022-09-10T05:21:05.280Z,11.84
2022-09-10T05:23:34.832Z,11.84
2022-09-10T05:26:02.918Z,11.84
2022-09-10T05:28:31.315Z,11.85
2022-09-10T05:30:59.611Z,11.86
2022-09-10T05:33:29.219Z,11.85
2022-09-10T05:35:57.111Z,11.83
2022-09-10T05:38:24.856Z,11.84
2022-09-10T05:40:53.662Z,11.83
2022-09-10T05:43:22.552Z,11.82
2022-09-10T05:45:52.178Z,11.82
2022-09-10T05:48:21.138Z,11.81
2022-09-10T05:50:51.502Z,11.79
2022-09-10T05:53:19.162Z,11.77
2022-09-10T05:55:46.780Z,11.79
2022-09-10T05:58:14.561Z,11.80
2022-09-10T06:00:46.718Z,11.80
2022-09-10T06:03:14.757Z,11.78
2022-09-10T06:05:53.209Z,11.80
2022-09-10T06:08:25.382Z,11.80
2022-09-10T06:11:00.699Z,11.80
2022-09-10T06:13:34.296Z,11.81
2022-09-10T06:16:02.973Z,11.81
2022-09-10T06:18:31.896Z,11.83
2022-09-10T06:21:17.462Z,11.85
2022-09-10T06:23:47.682Z,11.87
2022-09-10T06:26:18.449Z,11.90
2022-09-10T06:28:47.615Z,11.94
2022-09-10T06:31:20.132Z,11.98
2022-09-10T06:33:50.669Z,12.00
2022-09-10T06:36:21.357Z,12.01
2022-09-10T06:38:53.313Z,12.02
2022-09-10T06:41:21.354Z,12.04
2022-09-10T06:43:54.349Z,12.05
2022-09-10T06:49:31.336Z,12.09
2022-09-10T06:51:59.151Z,12.10
2022-09-10T06:54:27.318Z,12.14
2022-09-10T06:56:58.311Z,12.17
2022-09-10T06:59:26.437Z,12.20
2022-09-10T07:01:55.379Z,12.21
2022-09-10T07:04:23.064Z,12.23
2022-09-10T07:06:51.460Z,12.25
2022-09-10T07:09:19.622Z,12.28
2022-09-10T07:11:54.646Z,12.31
2022-09-10T07:14:23.760Z,12.34
2022-09-10T07:16:53.365Z,12.35
2022-09-10T07:19:23.175Z,12.37
2022-09-10T07:21:51.137Z,12.40
2022-09-10T07:24:20.089Z,12.44
2022-09-10T07:27:00.829Z,12.47
2022-09-10T07:29:31.140Z,12.50
2022-09-10T07:31:59.939Z,12.53
2022-09-10T07:34:27.847Z,12.55
2022-09-10T07:36:56.685Z,12.61
2022-09-10T07:39:26.028Z,12.66
2022-09-10T07:41:54.883Z,12.73
2022-09-10T07:44:27.056Z,12.78
2022-09-10T07:46:56.200Z,12.79
2022-09-10T07:49:23.877Z,12.78
2022-09-10T07:51:59.177Z,12.80
2022-09-10T07:54:29.597Z,12.87
2022-09-10T07:56:58.143Z,12.93
2022-09-10T07:59:27.096Z,12.98
2022-09-10T08:02:00.083Z,13.04
2022-09-10T08:04:36.416Z,13.07
2022-09-10T08:07:05.750Z,13.12
2022-09-10T08:09:34.598Z,13.14
2022-09-10T08:12:02.829Z,13.19
2022-09-10T08:14:31.639Z,13.22
2022-09-10T08:17:01.756Z,13.25
2022-09-10T08:19:30.031Z,13.30
2022-09-10T08:21:57.665Z,13.32
2022-09-10T08:24:29.298Z,13.28
2022-09-10T08:26:56.873Z,13.24
2022-09-10T08:29:24.519Z,13.25
2022-09-10T08:31:52.105Z,13.25
2022-09-10T08:34:26.254Z,13.25
2022-09-10T08:37:00.275Z,13.26
2022-09-10T08:39:31.091Z,13.27
2022-09-10T08:42:15.237Z,13.27
2022-09-10T08:45:04.916Z,13.29
2022-09-10T08:47:42.642Z,13.33
2022-09-10T08:50:27.132Z,13.36
2022-09-10T08:53:17.557Z,13.36
2022-09-10T08:55:48.992Z,13.36
2022-09-10T08:58:23.192Z,13.36
2022-09-10T09:00:57.635Z,13.36
2022-09-10T09:03:37.941Z,13.33
2022-09-10T09:06:12.952Z,13.30
2022-09-10T09:08:48.256Z,13.27
2022-09-10T09:11:48.585Z,13.22
2022-09-10T09:14:33.595Z,13.19
2022-09-10T09:17:27.500Z,13.17
2022-09-10T09:19:55.479Z,13.15
2022-09-10T09:22:45.409Z,13.12
2022-09-10T09:25:23.600Z,13.10
2022-09-10T09:27:55.360Z,13.08
2022-09-10T09:30:31.999Z,13.05
2022-09-10T09:33:12.504Z,13.03
2022-09-10T09:36:03.007Z,13.03
2022-09-10T09:38:37.428Z,13.01
2022-09-10T09:41:17.811Z,12.98
2022-09-10T09:43:51.351Z,12.94
2022-09-10T09:46:21.088Z,12.93
2022-09-10T09:48:55.664Z,12.94
2022-09-10T09:51:26.059Z,12.97
2022-09-10T09:54:34.609Z,12.99
2022-09-10T09:56:54.653Z,13.00
2022-09-10T09:59:28.423Z,13.01
2022-09-10T10:02:16.690Z,13.05
2022-09-10T10:05:09.843Z,13.09
2022-09-10T10:07:37.784Z,13.12
2022-09-10T10:10:07.374Z,13.15
2022-09-10T10:12:41.334Z,13.21
2022-09-10T10:15:36.655Z,13.25
2022-09-10T10:18:23.129Z,13.28
2022-09-10T10:21:10.362Z,13.29
2022-09-10T10:23:38.471Z,13.29
2022-09-10T10:26:22.053Z,13.29
2022-09-10T10:29:06.783Z,13.30
2022-09-10T10:31:37.464Z,13.26
2022-09-10T10:34:28.289Z,13.31
2022-09-10T10:37:01.834Z,13.38
2022-09-10T10:39:51.445Z,13.42
2022-09-10T10:42:51.097Z,13.46
2022-09-10T10:45:36.964Z,13.48
2022-09-10T10:48:12.278Z,13.50
2022-09-10T10:51:04.962Z,13.49
2022-09-10T10:54:03.211Z,13.49
2022-09-10T10:56:42.557Z,13.50
2022-09-10T10:59:26.739Z,13.49
2022-09-10T11:02:16.323Z,13.47
2022-09-10T11:04:48.767Z,13.49
2022-09-10T11:07:31.564Z,13.49
2022-09-10T11:10:29.984Z,13.47
2022-09-10T11:13:19.720Z,13.49
2022-09-10T11:15:59.401Z,13.56
2022-09-10T11:18:35.150Z,13.60
2022-09-10T11:21:22.157Z,13.63
2022-09-10T11:24:01.831Z,13.65
2022-09-10T11:26:43.376Z,13.63
2022-09-10T11:29:43.027Z,13.58
2022-09-10T11:32:30.141Z,13.54
2022-09-10T11:35:40.126Z,13.53
2022-09-10T11:38:40.174Z,13.54
2022-09-10T11:41:18.386Z,13.55
2022-09-10T11:44:17.992Z,13.55
2022-09-10T11:47:21.845Z,13.52
2022-09-10T11:50:07.474Z,13.50
2022-09-10T11:52:35.095Z,13.51
2022-09-10T11:55:04.977Z,13.51
2022-09-10T11:57:58.791Z,13.54
2022-09-10T12:00:34.280Z,13.57
2022-09-10T12:03:20.657Z,13.59
2022-09-10T12:06:04.301Z,13.61
2022-09-10T12:08:51.742Z,13.62
2022-09-10T12:11:51.587Z,13.62
2022-09-10T12:14:21.593Z,13.61
2022-09-10T12:16:54.415Z,13.59
2022-09-10T12:19:32.564Z,13.61
2022-09-10T12:22:07.873Z,13.61
2022-09-10T12:24:39.288Z,13.58
2022-09-10T12:27:07.172Z,13.56
2022-09-10T12:29:36.771Z,13.58
2022-09-10T12:32:20.315Z,13.60
2022-09-10T12:35:23.876Z,13.61
2022-09-10T12:38:27.376Z,13.61
2022-09-10T12:40:56.293Z,13.59
2022-09-10T12:43:40.139Z,13.59
2022-09-10T12:46:12.427Z,13.60
2022-09-10T12:48:46.223Z,13.61
2022-09-10T12:51:16.743Z,13.62
2022-09-10T12:53:58.740Z,13.64
2022-09-10T12:56:42.293Z,13.64
2022-09-10T12:59:25.842Z,13.65
2022-09-10T13:01:54.774Z,13.65
2022-09-10T13:04:39.527Z,13.65
2022-09-10T13:07:25.326Z,13.65
2022-09-10T13:10:05.060Z,13.65
2022-09-10T13:12:35.710Z,13.61
2022-09-10T13:15:04.961Z,13.58
2022-09-10T13:17:38.923Z,13.52
2022-09-10T13:20:26.434Z,13.47
2022-09-10T13:23:04.180Z,13.39
2022-09-10T13:25:43.519Z,13.33
2022-09-10T13:28:29.966Z,13.29
2022-09-10T13:31:17.041Z,13.29
2022-09-10T13:33:52.026Z,13.30
2022-09-10T13:36:41.900Z,13.30
2022-09-10T13:39:40.521Z,13.28
2022-09-10T13:42:42.261Z,13.27
2022-09-10T13:45:12.893Z,13.22
2022-09-10T13:47:53.468Z,13.22
2022-09-10T13:50:25.362Z,13.24
2022-09-10T13:52:57.558Z,13.26
2022-09-10T13:55:30.867Z,13.24
2022-09-10T13:58:11.874Z,13.19
2022-09-10T14:00:52.093Z,13.13
2022-09-10T14:03:25.093Z,13.13
2022-09-10T14:06:04.253Z,13.14
2022-09-10T14:08:49.392Z,13.10
2022-09-10T14:11:26.810Z,12.99
2022-09-10T14:14:04.494Z,12.87
2022-09-10T14:16:38.696Z,12.80
2022-09-10T14:19:20.771Z,12.75
2022-09-10T14:21:50.220Z,12.73
2022-09-10T14:24:40.205Z,12.75
2022-09-10T14:27:26.804Z,12.77
2022-09-10T14:29:56.643Z,12.77
2022-09-10T14:32:40.745Z,12.79
2022-09-10T14:35:42.987Z,12.81
2022-09-10T14:38:34.549Z,12.82
2022-09-10T14:41:17.055Z,12.76
2022-09-10T14:43:45.528Z,12.73
2022-09-10T14:46:46.363Z,12.73
2022-09-10T14:49:16.081Z,12.76
2022-09-10T14:51:44.100Z,12.78
2022-09-10T14:54:13.042Z,12.77
2022-09-10T14:56:46.460Z,12.78
2022-09-10T14:59:30.386Z,12.79
2022-09-10T15:02:00.863Z,12.82
2022-09-10T15:04:32.990Z,12.83
2022-09-10T15:07:02.609Z,12.80
2022-09-10T15:09:31.279Z,12.76
2022-09-10T15:12:15.351Z,12.70
2022-09-10T15:14:43.357Z,12.66
2022-09-10T15:17:14.644Z,12.64
2022-09-10T15:19:42.252Z,12.61
2022-09-10T15:22:27.473Z,12.60
2022-09-10T15:25:09.679Z,12.63
2022-09-10T15:27:38.412Z,12.65
2022-09-10T15:30:07.124Z,12.64
2022-09-10T15:32:35.010Z,12.62
2022-09-10T15:35:04.311Z,12.60
2022-09-10T15:37:33.124Z,12.62
2022-09-10T15:40:01.124Z,12.64
2022-09-10T15:42:30.555Z,12.63
2022-09-10T15:44:58.145Z,12.62
2022-09-10T15:47:26.921Z,12.62
2022-09-10T15:49:54.586Z,12.62
2022-09-10T15:52:22.165Z,12.60
2022-09-10T15:54:49.773Z,12.58
2022-09-10T15:57:17.372Z,12.56
2022-09-10T15:59:44.965Z,12.57
2022-09-10T16:02:15.754Z,12.57
2022-09-10T16:04:43.425Z,12.54
2022-09-10T16:07:11.498Z,12.55
2022-09-10T16:09:39.355Z,12.54
2022-09-10T16:12:07.144Z,12.55
2022-09-10T16:14:34.843Z,12.56
2022-09-10T16:17:10.232Z,12.56
2022-09-10T16:19:38.207Z,12.57
2022-09-10T16:22:06.086Z,12.58
2022-09-10T16:24:34.340Z,12.58
2022-09-10T16:27:01.996Z,12.59
2022-09-10T16:29:29.642Z,12.59
2022-09-10T16:31:57.309Z,12.62
2022-09-10T16:34:25.074Z,12.61
2022-09-10T16:36:53.048Z,12.60
2022-09-10T16:39:20.749Z,12.60
2022-09-10T16:41:49.638Z,12.59
2022-09-10T16:44:19.721Z,12.56
2022-09-10T16:46:47.811Z,12.54
2022-09-10T16:49:18.333Z,12.53
2022-09-10T16:51:49.318Z,12.53
2022-09-10T16:54:19.960Z,12.50
2022-09-10T16:56:48.701Z,12.46
2022-09-10T16:59:22.320Z,12.43
2022-09-10T17:01:51.921Z,12.40
2022-09-10T17:04:28.247Z,12.38
2022-09-10T17:06:57.988Z,12.35
2022-09-10T17:09:26.199Z,12.33
2022-09-10T17:11:54.250Z,12.31
2022-09-10T17:14:22.155Z,12.30
2022-09-10T17:16:49.982Z,12.29
2022-09-10T17:19:21.201Z,12.29
2022-09-10T17:21:51.573Z,12.29
2022-09-10T17:24:22.472Z,12.30
2022-09-10T17:26:51.639Z,12.30
2022-09-10T17:29:22.242Z,12.29
2022-09-10T17:31:55.332Z,12.29
2022-09-10T17:34:24.530Z,12.30
2022-09-10T17:36:52.535Z,12.30
2022-09-10T17:39:20.198Z,12.30
2022-09-10T17:41:48.389Z,12.29
2022-09-10T17:44:16.556Z,12.30
2022-09-10T17:46:45.067Z,12.29
2022-09-10T17:49:14.042Z,12.29
2022-09-10T17:51:42.475Z,12.27
2022-09-10T17:54:10.561Z,12.25
2022-09-10T17:56:38.251Z,12.24
2022-09-10T17:59:06.129Z,12.23
2022-09-10T18:01:38.562Z,12.22
2022-09-10T18:04:08.695Z,12.21
2022-09-10T18:06:36.454Z,12.20
2022-09-10T18:09:05.562Z,12.21
2022-09-10T18:11:37.129Z,12.22
2022-09-10T18:14:04.987Z,12.22
2022-09-10T18:16:35.099Z,12.23
2022-09-10T18:19:12.970Z,12.21
2022-09-10T18:21:43.645Z,12.21
2022-09-10T18:24:12.948Z,12.22
2022-09-10T18:26:43.475Z,12.23
2022-09-10T18:29:14.373Z,12.24
2022-09-10T18:31:45.101Z,12.25
2022-09-10T18:34:22.200Z,12.26
2022-09-10T18:36:55.287Z,12.27
2022-09-10T18:39:24.904Z,12.27
2022-09-10T18:41:54.716Z,12.27
2022-09-10T18:44:25.707Z,12.26
2022-09-10T18:46:54.148Z,12.27
2022-09-10T18:49:24.298Z,12.26
2022-09-10T18:51:54.120Z,12.26
2022-09-10T18:54:23.145Z,12.24
2022-09-10T18:56:50.801Z,12.22
2022-09-10T18:59:20.440Z,12.21
2022-09-10T19:01:49.965Z,12.20
2022-09-10T19:04:21.671Z,12.20
2022-09-10T19:06:50.095Z,12.19
2022-09-10T19:09:23.883Z,12.17
2022-09-10T19:11:54.087Z,12.15
2022-09-10T19:14:26.211Z,12.16
2022-09-10T19:16:55.055Z,12.15
2022-09-10T19:19:25.888Z,12.14
2022-09-10T19:21:59.445Z,12.12
2022-09-10T19:24:43.988Z,12.14
2022-09-10T19:27:14.987Z,12.13
2022-09-10T19:29:43.091Z,12.11
2022-09-10T19:32:11.543Z,12.12
2022-09-10T19:34:39.377Z,12.13
2022-09-10T19:37:07.117Z,12.14
2022-09-10T19:39:34.850Z,12.13
2022-09-10T19:42:02.701Z,12.15
2022-09-10T19:44:30.328Z,12.17
2022-09-10T19:46:58.639Z,12.18
2022-09-10T19:49:26.522Z,12.17
2022-09-10T19:51:54.172Z,12.16
2022-09-10T19:54:22.681Z,12.16
2022-09-10T19:56:50.287Z,12.16
2022-09-10T19:59:17.883Z,12.14
2022-09-10T20:01:46.064Z,12.14
2022-09-10T20:04:14.938Z,12.15
2022-09-10T20:06:43.413Z,12.14
2022-09-10T20:09:11.499Z,12.15
2022-09-10T20:11:39.184Z,12.15
2022-09-10T20:14:11.247Z,12.14
2022-09-10T20:16:42.484Z,12.14
2022-09-10T20:19:13.089Z,12.14
2022-09-10T20:21:42.089Z,12.14
2022-09-10T20:24:10.727Z,12.15
2022-09-10T20:26:41.003Z,12.14
2022-09-10T20:29:14.134Z,12.15
2022-09-10T20:31:43.178Z,12.16
2022-09-10T20:34:13.752Z,12.17
2022-09-10T20:36:45.161Z,12.18
2022-09-10T20:39:15.272Z,12.19
2022-09-10T20:41:44.248Z,12.19
2022-09-10T20:44:14.575Z,12.21
2022-09-10T20:46:43.420Z,12.20
2022-09-10T20:49:13.617Z,12.17
2022-09-10T20:51:41.935Z,12.15
2022-09-10T20:54:15.559Z,12.13
2022-09-10T20:56:43.939Z,12.14
2022-09-10T20:59:15.415Z,12.15
2022-09-10T21:01:46.115Z,12.15
2022-09-10T21:04:14.692Z,12.15
2022-09-10T21:06:42.752Z,12.15
2022-09-10T21:09:11.774Z,12.16
2022-09-10T21:11:39.484Z,12.17
2022-09-10T21:14:08.141Z,12.17
2022-09-10T21:16:38.671Z,12.17
2022-09-10T21:19:10.450Z,12.18
2022-09-10T21:21:39.526Z,12.17
2022-09-10T21:24:11.805Z,12.15
2022-09-10T21:26:41.799Z,12.11
2022-09-10T21:29:18.172Z,12.08
2022-09-10T21:31:46.476Z,12.08
2022-09-10T21:34:14.730Z,12.09
2022-09-10T21:36:43.533Z,12.10
2022-09-10T21:39:16.628Z,12.10
2022-09-10T21:41:47.115Z,12.08
2022-09-10T21:44:18.370Z,12.07
2022-09-10T21:46:47.595Z,12.06
2022-09-10T21:49:16.289Z,12.06
2022-09-10T21:51:45.046Z,12.04
2022-09-10T21:54:17.008Z,12.01
2022-09-10T21:56:45.084Z,12.00
2022-09-10T21:59:14.381Z,12.00
2022-09-10T22:01:44.729Z,12.00
2022-09-10T22:04:18.808Z,11.99
2022-09-10T22:06:50.029Z,11.98
2022-09-10T22:09:17.708Z,11.97
2022-09-10T22:11:50.023Z,11.95
2022-09-10T22:14:21.344Z,11.93
2022-09-10T22:16:49.926Z,11.91
2022-09-10T22:19:22.305Z,11.92
2022-09-10T22:21:51.104Z,11.93
2022-09-10T22:24:18.963Z,11.94
2022-09-10T22:26:47.224Z,11.96
2022-09-10T22:29:18.024Z,11.96
2022-09-10T22:31:46.630Z,11.97
2022-09-10T22:34:17.000Z,11.98
2022-09-10T22:36:46.461Z,12.00
2022-09-10T22:39:17.719Z,12.01
2022-09-10T22:41:46.439Z,12.01
2022-09-10T22:44:14.777Z,12.01
2022-09-10T22:46:42.968Z,12.01
2022-09-10T22:49:10.898Z,12.01
2022-09-10T22:51:41.060Z,12.00
2022-09-10T22:54:10.595Z,11.99
2022-09-10T22:56:39.698Z,11.99
2022-09-10T22:59:11.960Z,11.96
2022-09-10T23:01:40.355Z,11.95
2022-09-10T23:04:09.393Z,11.93
2022-09-10T23:06:38.596Z,11.93
2022-09-10T23:09:12.137Z,11.94
2022-09-10T23:11:40.317Z,11.94
2022-09-10T23:14:12.962Z,11.92
2022-09-10T23:16:42.841Z,11.91
2022-09-10T23:19:30.278Z,11.90
2022-09-10T23:21:58.158Z,11.91
2022-09-10T23:24:26.449Z,11.90
2022-09-10T23:26:54.789Z,11.90
2022-09-10T23:29:23.298Z,11.91
2022-09-10T23:31:54.583Z,11.92
2022-09-10T23:34:23.259Z,11.92
2022-09-10T23:36:52.209Z,11.94
2022-09-10T23:39:22.621Z,11.93
2022-09-10T23:41:53.488Z,11.93
2022-09-10T23:44:22.611Z,11.93
2022-09-10T23:46:50.634Z,11.92
2022-09-10T23:49:18.201Z,11.93
2022-09-10T23:51:45.800Z,11.91
2022-09-10T23:54:13.511Z,11.91
2022-09-10T23:56:41.133Z,11.92
2022-09-10T23:59:09.531Z,11.91
